sensor_id;sensor_type;location;lat;lon;timestamp;temperature;humidity
17489;DHT22;8861;52.644;4.734;2022-12-18T00:01:27;-2.20;99.90
17489;DHT22;8861;52.644;4.734;2022-12-18T00:03:56;-2.20;99.90
17489;DHT22;8861;52.644;4.734;2022-12-18T00:06:24;-2.20;99.90
17489;DHT22;8861;52.644;4.734;2022-12-18T00:08:52;-2.10;99.90
17489;DHT22;8861;52.644;4.734;2022-12-18T00:11:22;-2.10;99.90
17489;DHT22;8861;52.644;4.734;2022-12-18T00:13:51;-2.00;99.90
17489;DHT22;8861;52.644;4.734;2022-12-18T00:16:20;-2.00;99.90
17489;DHT22;8861;52.644;4.734;2022-12-18T00:18:48;-2.00;99.90
17489;DHT22;8861;52.644;4.734;2022-12-18T00:21:15;-2.10;99.90
17489;DHT22;8861;52.644;4.734;2022-12-18T00:23:43;-2.10;99.90
17489;DHT22;8861;52.644;4.734;2022-12-18T00:26:16;-2.10;99.90
17489;DHT22;8861;52.644;4.734;2022-12-18T00:28:45;-2.10;99.90
17489;DHT22;8861;52.644;4.734;2022-12-18T00:31:14;-2.10;99.90
17489;DHT22;8861;52.644;4.734;2022-12-18T00:33:42;-2.20;99.90
17489;DHT22;8861;52.644;4.734;2022-12-18T00:36:11;-2.20;99.90
17489;DHT22;8861;52.644;4.734;2022-12-18T00:38:39;-2.20;99.90
17489;DHT22;8861;52.644;4.734;2022-12-18T00:41:07;-2.20;99.90
17489;DHT22;8861;52.644;4.734;2022-12-18T00:43:34;-2.20;99.90
17489;DHT22;8861;52.644;4.734;2022-12-18T00:46:02;-2.20;99.90
17489;DHT22;8861;52.644;4.734;2022-12-18T00:48:29;-2.20;99.90
17489;DHT22;8861;52.644;4.734;2022-12-18T00:50:56;-2.20;99.90
17489;DHT22;8861;52.644;4.734;2022-12-18T00:53:23;-2.20;99.90
17489;DHT22;8861;52.644;4.734;2022-12-18T00:55:50;-2.30;99.90
17489;DHT22;8861;52.644;4.734;2022-12-18T00:58:17;-2.30;99.90
17489;DHT22;8861;52.644;4.734;2022-12-18T01:00:44;-2.30;99.90
17489;DHT22;8861;52.644;4.734;2022-12-18T01:03:14;-2.30;99.90
17489;DHT22;8861;52.644;4.734;2022-12-18T01:05:41;-2.30;99.90
17489;DHT22;8861;52.644;4.734;2022-12-18T01:08:08;-2.20;99.90
17489;DHT22;8861;52.644;4.734;2022-12-18T01:10:35;-2.20;99.90
17489;DHT22;8861;52.644;4.734;2022-12-18T01:13:02;-2.20;99.90
17489;DHT22;8861;52.644;4.734;2022-12-18T01:15:29;-2.20;99.90
17489;DHT22;8861;52.644;4.734;2022-12-18T01:17:56;-2.20;99.90
17489;DHT22;8861;52.644;4.734;2022-12-18T01:20:24;-2.20;99.90
17489;DHT22;8861;52.644;4.734;2022-12-18T01:22:51;-2.20;99.90
17489;DHT22;8861;52.644;4.734;2022-12-18T01:25:18;-2.20;99.90
17489;DHT22;8861;52.644;4.734;2022-12-18T01:27:45;-2.20;99.90
17489;DHT22;8861;52.644;4.734;2022-12-18T01:30:12;-2.20;99.90
17489;DHT22;8861;52.644;4.734;2022-12-18T01:32:39;-2.20;99.90
17489;DHT22;8861;52.644;4.734;2022-12-18T01:35:07;-2.20;99.90
17489;DHT22;8861;52.644;4.734;2022-12-18T01:37:35;-2.20;99.90
17489;DHT22;8861;52.644;4.734;2022-12-18T01:40:03;-2.20;99.90
17489;DHT22;8861;52.644;4.734;2022-12-18T01:42:30;-2.20;99.90
17489;DHT22;8861;52.644;4.734;2022-12-18T01:45:03;-2.20;99.90
17489;DHT22;8861;52.644;4.734;2022-12-18T01:47:35;-2.20;99.90
17489;DHT22;8861;52.644;4.734;2022-12-18T01:50:07;-2.20;99.90
17489;DHT22;8861;52.644;4.734;2022-12-18T01:52:36;-2.20;99.90
17489;DHT22;8861;52.644;4.734;2022-12-18T01:55:07;-2.20;99.90
17489;DHT22;8861;52.644;4.734;2022-12-18T01:57:36;-2.20;99.90
17489;DHT22;8861;52.644;4.734;2022-12-18T02:00:06;-2.20;99.90
17489;DHT22;8861;52.644;4.734;2022-12-18T02:02:33;-2.20;99.90
17489;DHT22;8861;52.644;4.734;2022-12-18T02:05:02;-2.20;99.90
17489;DHT22;8861;52.644;4.734;2022-12-18T02:07:40;-2.30;99.90
17489;DHT22;8861;52.644;4.734;2022-12-18T02:10:14;-2.30;99.90
17489;DHT22;8861;52.644;4.734;2022-12-18T02:12:45;-2.40;99.90
17489;DHT22;8861;52.644;4.734;2022-12-18T02:15:19;-2.50;99.90
17489;DHT22;8861;52.644;4.734;2022-12-18T02:17:55;-2.50;99.90
17489;DHT22;8861;52.644;4.734;2022-12-18T02:20:27;-2.50;99.90
17489;DHT22;8861;52.644;4.734;2022-12-18T02:23:08;-2.50;99.90
17489;DHT22;8861;52.644;4.734;2022-12-18T02:26:07;-2.60;99.90
17489;DHT22;8861;52.644;4.734;2022-12-18T02:28:41;-2.60;99.90
17489;DHT22;8861;52.644;4.734;2022-12-18T02:31:11;-2.70;99.90
17489;DHT22;8861;52.644;4.734;2022-12-18T02:33:41;-2.70;99.90
17489;DHT22;8861;52.644;4.734;2022-12-18T02:36:10;-2.70;99.90
17489;DHT22;8861;52.644;4.734;2022-12-18T02:38:38;-2.70;99.90
17489;DHT22;8861;52.644;4.734;2022-12-18T02:41:07;-2.70;99.90
17489;DHT22;8861;52.644;4.734;2022-12-18T02:43:34;-2.70;99.90
17489;DHT22;8861;52.644;4.734;2022-12-18T02:46:25;-2.70;99.90
17489;DHT22;8861;52.644;4.734;2022-12-18T02:49:02;-2.70;99.90
17489;DHT22;8861;52.644;4.734;2022-12-18T02:51:39;-2.60;99.90
17489;DHT22;8861;52.644;4.734;2022-12-18T02:54:18;-2.60;99.90
17489;DHT22;8861;52.644;4.734;2022-12-18T02:56:51;-2.70;99.90
17489;DHT22;8861;52.644;4.734;2022-12-18T02:59:25;-2.60;99.90
17489;DHT22;8861;52.644;4.734;2022-12-18T03:02:00;-2.60;99.90
17489;DHT22;8861;52.644;4.734;2022-12-18T03:04:32;-2.60;99.90
17489;DHT22;8861;52.644;4.734;2022-12-18T03:07:03;-2.70;99.90
17489;DHT22;8861;52.644;4.734;2022-12-18T03:09:34;-2.70;99.90
17489;DHT22;8861;52.644;4.734;2022-12-18T03:12:06;-2.80;99.90
17489;DHT22;8861;52.644;4.734;2022-12-18T03:14:54;-2.80;99.90
17489;DHT22;8861;52.644;4.734;2022-12-18T03:17:24;-2.80;99.90
17489;DHT22;8861;52.644;4.734;2022-12-18T03:19:53;-2.80;99.90
17489;DHT22;8861;52.644;4.734;2022-12-18T03:22:23;-2.80;99.90
17489;DHT22;8861;52.644;4.734;2022-12-18T03:24:51;-2.80;99.90
17489;DHT22;8861;52.644;4.734;2022-12-18T03:27:21;-2.80;99.90
17489;DHT22;8861;52.644;4.734;2022-12-18T03:29:55;-2.80;99.90
17489;DHT22;8861;52.644;4.734;2022-12-18T03:32:31;-2.90;99.90
17489;DHT22;8861;52.644;4.734;2022-12-18T03:35:03;-2.90;99.90
17489;DHT22;8861;52.644;4.734;2022-12-18T03:37:31;-2.90;99.90
17489;DHT22;8861;52.644;4.734;2022-12-18T03:39:58;-2.90;99.90
17489;DHT22;8861;52.644;4.734;2022-12-18T03:42:29;-2.90;99.90
17489;DHT22;8861;52.644;4.734;2022-12-18T03:45:05;-2.90;99.90
17489;DHT22;8861;52.644;4.734;2022-12-18T03:47:39;-2.80;99.90
17489;DHT22;8861;52.644;4.734;2022-12-18T03:50:14;-2.80;99.90
17489;DHT22;8861;52.644;4.734;2022-12-18T03:52:49;-2.80;99.90
17489;DHT22;8861;52.644;4.734;2022-12-18T03:55:18;-2.80;99.90
17489;DHT22;8861;52.644;4.734;2022-12-18T03:57:48;-2.80;99.90
17489;DHT22;8861;52.644;4.734;2022-12-18T04:00:17;-2.80;99.90
17489;DHT22;8861;52.644;4.734;2022-12-18T04:02:48;-2.90;99.90
17489;DHT22;8861;52.644;4.734;2022-12-18T04:05:17;-2.90;99.90
17489;DHT22;8861;52.644;4.734;2022-12-18T04:07:47;-3.00;99.90
17489;DHT22;8861;52.644;4.734;2022-12-18T04:10:15;-3.00;99.90
17489;DHT22;8861;52.644;4.734;2022-12-18T04:12:42;-3.00;99.90
17489;DHT22;8861;52.644;4.734;2022-12-18T04:15:12;-3.10;99.90
17489;DHT22;8861;52.644;4.734;2022-12-18T04:17:41;-3.10;99.90
17489;DHT22;8861;52.644;4.734;2022-12-18T04:20:10;-3.10;99.90
17489;DHT22;8861;52.644;4.734;2022-12-18T04:22:37;-3.10;99.90
17489;DHT22;8861;52.644;4.734;2022-12-18T04:25:05;-3.10;99.90
17489;DHT22;8861;52.644;4.734;2022-12-18T04:27:32;-3.20;99.90
17489;DHT22;8861;52.644;4.734;2022-12-18T04:29:59;-3.20;99.90
17489;DHT22;8861;52.644;4.734;2022-12-18T04:32:27;-3.20;99.90
17489;DHT22;8861;52.644;4.734;2022-12-18T04:34:54;-3.30;99.90
17489;DHT22;8861;52.644;4.734;2022-12-18T04:37:21;-3.30;99.90
17489;DHT22;8861;52.644;4.734;2022-12-18T04:39:48;-3.30;99.90
17489;DHT22;8861;52.644;4.734;2022-12-18T04:42:15;-3.20;99.90
17489;DHT22;8861;52.644;4.734;2022-12-18T04:44:42;-3.10;99.90
17489;DHT22;8861;52.644;4.734;2022-12-18T04:47:09;-3.10;99.90
17489;DHT22;8861;52.644;4.734;2022-12-18T04:49:37;-3.10;99.90
17489;DHT22;8861;52.644;4.734;2022-12-18T04:52:04;-3.20;99.90
17489;DHT22;8861;52.644;4.734;2022-12-18T04:54:31;-3.20;99.90
17489;DHT22;8861;52.644;4.734;2022-12-18T04:56:58;-3.30;99.90
17489;DHT22;8861;52.644;4.734;2022-12-18T04:59:25;-3.30;99.90
17489;DHT22;8861;52.644;4.734;2022-12-18T05:01:52;-3.30;99.90
17489;DHT22;8861;52.644;4.734;2022-12-18T05:04:18;-3.30;99.90
17489;DHT22;8861;52.644;4.734;2022-12-18T05:06:47;-3.30;99.90
17489;DHT22;8861;52.644;4.734;2022-12-18T05:09:14;-3.40;99.90
17489;DHT22;8861;52.644;4.734;2022-12-18T05:11:41;-3.40;99.90
17489;DHT22;8861;52.644;4.734;2022-12-18T05:14:07;-3.30;99.90
17489;DHT22;8861;52.644;4.734;2022-12-18T05:16:34;-3.30;99.90
17489;DHT22;8861;52.644;4.734;2022-12-18T05:19:01;-3.30;99.90
17489;DHT22;8861;52.644;4.734;2022-12-18T05:21:28;-3.40;99.90
17489;DHT22;8861;52.644;4.734;2022-12-18T05:23:57;-3.40;99.90
17489;DHT22;8861;52.644;4.734;2022-12-18T05:26:24;-3.40;99.90
17489;DHT22;8861;52.644;4.734;2022-12-18T05:28:50;-3.40;99.90
17489;DHT22;8861;52.644;4.734;2022-12-18T05:31:17;-3.40;99.90
17489;DHT22;8861;52.644;4.734;2022-12-18T05:33:44;-3.40;99.90
17489;DHT22;8861;52.644;4.734;2022-12-18T05:36:11;-3.50;99.90
17489;DHT22;8861;52.644;4.734;2022-12-18T05:38:39;-3.40;99.90
17489;DHT22;8861;52.644;4.734;2022-12-18T05:41:09;-3.40;99.90
17489;DHT22;8861;52.644;4.734;2022-12-18T05:43:36;-3.50;99.90
17489;DHT22;8861;52.644;4.734;2022-12-18T05:46:04;-3.50;99.90
17489;DHT22;8861;52.644;4.734;2022-12-18T05:48:31;-3.50;99.90
17489;DHT22;8861;52.644;4.734;2022-12-18T05:51:04;-3.50;99.90
17489;DHT22;8861;52.644;4.734;2022-12-18T05:53:32;-3.50;99.90
17489;DHT22;8861;52.644;4.734;2022-12-18T05:56:00;-3.50;99.90
17489;DHT22;8861;52.644;4.734;2022-12-18T05:58:29;-3.50;99.90
17489;DHT22;8861;52.644;4.734;2022-12-18T06:00:57;-3.50;99.90
17489;DHT22;8861;52.644;4.734;2022-12-18T06:03:24;-3.40;99.90
17489;DHT22;8861;52.644;4.734;2022-12-18T06:05:51;-3.40;99.90
17489;DHT22;8861;52.644;4.734;2022-12-18T06:08:18;-3.40;99.90
17489;DHT22;8861;52.644;4.734;2022-12-18T06:10:50;-3.40;99.90
17489;DHT22;8861;52.644;4.734;2022-12-18T06:13:19;-3.40;99.90
17489;DHT22;8861;52.644;4.734;2022-12-18T06:15:47;-3.30;99.90
17489;DHT22;8861;52.644;4.734;2022-12-18T06:18:14;-3.30;99.90
17489;DHT22;8861;52.644;4.734;2022-12-18T06:20:41;-3.40;99.90
17489;DHT22;8861;52.644;4.734;2022-12-18T06:23:08;-3.40;99.90
17489;DHT22;8861;52.644;4.734;2022-12-18T06:25:37;-3.40;99.90
17489;DHT22;8861;52.644;4.734;2022-12-18T06:28:04;-3.40;99.90
17489;DHT22;8861;52.644;4.734;2022-12-18T06:30:31;-3.40;99.90
17489;DHT22;8861;52.644;4.734;2022-12-18T06:32:59;-3.40;99.90
17489;DHT22;8861;52.644;4.734;2022-12-18T06:35:27;-3.40;99.90
17489;DHT22;8861;52.644;4.734;2022-12-18T06:37:54;-3.50;99.90
17489;DHT22;8861;52.644;4.734;2022-12-18T06:40:21;-3.50;99.90
17489;DHT22;8861;52.644;4.734;2022-12-18T06:42:48;-3.50;99.90
17489;DHT22;8861;52.644;4.734;2022-12-18T06:45:15;-3.60;99.90
17489;DHT22;8861;52.644;4.734;2022-12-18T06:47:41;-3.60;99.90
17489;DHT22;8861;52.644;4.734;2022-12-18T06:50:10;-3.60;99.90
17489;DHT22;8861;52.644;4.734;2022-12-18T06:52:37;-3.60;99.90
17489;DHT22;8861;52.644;4.734;2022-12-18T06:55:10;-3.60;99.90
17489;DHT22;8861;52.644;4.734;2022-12-18T06:57:37;-3.60;99.90
17489;DHT22;8861;52.644;4.734;2022-12-18T07:00:06;-3.60;99.90
17489;DHT22;8861;52.644;4.734;2022-12-18T07:02:33;-3.60;99.90
17489;DHT22;8861;52.644;4.734;2022-12-18T07:05:00;-3.60;99.90
17489;DHT22;8861;52.644;4.734;2022-12-18T07:07:29;-3.60;99.90
17489;DHT22;8861;52.644;4.734;2022-12-18T07:09:56;-3.60;99.90
17489;DHT22;8861;52.644;4.734;2022-12-18T07:12:22;-3.60;99.90
17489;DHT22;8861;52.644;4.734;2022-12-18T07:14:49;-3.60;99.90
17489;DHT22;8861;52.644;4.734;2022-12-18T07:17:16;-3.60;99.90
17489;DHT22;8861;52.644;4.734;2022-12-18T07:19:43;-3.60;99.90
17489;DHT22;8861;52.644;4.734;2022-12-18T09:44:56;-2.00;99.90
17489;DHT22;8861;52.644;4.734;2022-12-18T09:47:25;-1.90;99.90
17489;DHT22;8861;52.644;4.734;2022-12-18T09:49:57;-1.90;99.90
17489;DHT22;8861;52.644;4.734;2022-12-18T09:52:28;-1.80;99.90
17489;DHT22;8861;52.644;4.734;2022-12-18T09:55:03;-1.80;99.90
17489;DHT22;8861;52.644;4.734;2022-12-18T09:57:33;-1.70;99.90
17489;DHT22;8861;52.644;4.734;2022-12-18T10:00:15;-1.60;99.90
17489;DHT22;8861;52.644;4.734;2022-12-18T10:02:43;-1.60;99.90
17489;DHT22;8861;52.644;4.734;2022-12-18T10:05:13;-1.50;99.90
17489;DHT22;8861;52.644;4.734;2022-12-18T10:07:49;-1.40;99.90
17489;DHT22;8861;52.644;4.734;2022-12-18T10:10:27;-1.40;99.90
17489;DHT22;8861;52.644;4.734;2022-12-18T10:13:00;-1.30;99.90
17489;DHT22;8861;52.644;4.734;2022-12-18T10:15:35;-1.30;99.90
17489;DHT22;8861;52.644;4.734;2022-12-18T10:18:13;-1.30;99.90
17489;DHT22;8861;52.644;4.734;2022-12-18T10:20:44;-1.20;99.90
17489;DHT22;8861;52.644;4.734;2022-12-18T10:23:15;-1.20;99.90
17489;DHT22;8861;52.644;4.734;2022-12-18T10:25:53;-1.20;99.90
17489;DHT22;8861;52.644;4.734;2022-12-18T10:28:22;-1.20;99.90
17489;DHT22;8861;52.644;4.734;2022-12-18T10:30:51;-1.10;99.90
17489;DHT22;8861;52.644;4.734;2022-12-18T10:33:20;-1.10;99.90
17489;DHT22;8861;52.644;4.734;2022-12-18T10:35:50;-1.10;99.90
17489;DHT22;8861;52.644;4.734;2022-12-18T10:38:23;-1.00;99.90
17489;DHT22;8861;52.644;4.734;2022-12-18T10:40:52;-1.00;99.90
17489;DHT22;8861;52.644;4.734;2022-12-18T10:43:23;-1.10;99.90
17489;DHT22;8861;52.644;4.734;2022-12-18T10:46:16;-1.00;99.90
17489;DHT22;8861;52.644;4.734;2022-12-18T10:48:52;-1.00;99.90
17489;DHT22;8861;52.644;4.734;2022-12-18T10:51:21;-1.00;99.90
17489;DHT22;8861;52.644;4.734;2022-12-18T10:53:54;-1.00;99.90
17489;DHT22;8861;52.644;4.734;2022-12-18T10:56:22;-1.00;99.90
17489;DHT22;8861;52.644;4.734;2022-12-18T10:58:56;-1.00;99.90
17489;DHT22;8861;52.644;4.734;2022-12-18T11:01:25;-1.00;99.90
17489;DHT22;8861;52.644;4.734;2022-12-18T11:04:04;-0.90;99.90
17489;DHT22;8861;52.644;4.734;2022-12-18T11:06:34;-0.80;99.90
17489;DHT22;8861;52.644;4.734;2022-12-18T11:09:19;-0.70;99.90
17489;DHT22;8861;52.644;4.734;2022-12-18T11:11:48;-0.70;99.90
17489;DHT22;8861;52.644;4.734;2022-12-18T11:14:21;-0.70;99.90
17489;DHT22;8861;52.644;4.734;2022-12-18T11:16:51;-0.70;99.90
17489;DHT22;8861;52.644;4.734;2022-12-18T11:19:30;-0.70;99.90
17489;DHT22;8861;52.644;4.734;2022-12-18T11:21:59;-0.70;99.90
17489;DHT22;8861;52.644;4.734;2022-12-18T11:24:30;-0.70;99.90
17489;DHT22;8861;52.644;4.734;2022-12-18T11:26:59;-0.60;99.90
17489;DHT22;8861;52.644;4.734;2022-12-18T11:29:32;-0.60;99.90
17489;DHT22;8861;52.644;4.734;2022-12-18T11:32:32;-0.60;99.90
17489;DHT22;8861;52.644;4.734;2022-12-18T11:35:10;-0.50;99.90
17489;DHT22;8861;52.644;4.734;2022-12-18T11:37:40;-0.50;99.90
17489;DHT22;8861;52.644;4.734;2022-12-18T11:40:14;-0.50;99.90
17489;DHT22;8861;52.644;4.734;2022-12-18T11:42:46;-0.40;99.90
17489;DHT22;8861;52.644;4.734;2022-12-18T11:45:27;-0.40;99.90
17489;DHT22;8861;52.644;4.734;2022-12-18T11:48:01;-0.40;99.90
17489;DHT22;8861;52.644;4.734;2022-12-18T11:50:33;-0.40;99.90
17489;DHT22;8861;52.644;4.734;2022-12-18T11:53:04;-0.30;99.90
17489;DHT22;8861;52.644;4.734;2022-12-18T11:55:37;-0.30;99.90
17489;DHT22;8861;52.644;4.734;2022-12-18T11:58:12;-0.20;99.90
17489;DHT22;8861;52.644;4.734;2022-12-18T12:00:48;-0.20;99.90
17489;DHT22;8861;52.644;4.734;2022-12-18T12:03:36;-0.20;99.90
17489;DHT22;8861;52.644;4.734;2022-12-18T12:06:13;-0.10;99.90
17489;DHT22;8861;52.644;4.734;2022-12-18T12:08:57;-0.10;99.90
17489;DHT22;8861;52.644;4.734;2022-12-18T12:11:35;-0.10;99.90
17489;DHT22;8861;52.644;4.734;2022-12-18T12:14:15;-0.10;99.90
17489;DHT22;8861;52.644;4.734;2022-12-18T12:16:50;-0.10;99.90
17489;DHT22;8861;52.644;4.734;2022-12-18T12:19:32;0.00;99.90
17489;DHT22;8861;52.644;4.734;2022-12-18T12:22:07;0.00;99.90
17489;DHT22;8861;52.644;4.734;2022-12-18T12:24:45;0.00;99.90
17489;DHT22;8861;52.644;4.734;2022-12-18T12:27:20;0.10;99.90
17489;DHT22;8861;52.644;4.734;2022-12-18T12:29:58;0.10;99.90
17489;DHT22;8861;52.644;4.734;2022-12-18T12:32:45;0.10;99.90
17489;DHT22;8861;52.644;4.734;2022-12-18T12:35:36;0.20;99.90
17489;DHT22;8861;52.644;4.734;2022-12-18T12:38:08;0.20;99.90
17489;DHT22;8861;52.644;4.734;2022-12-18T12:40:41;0.20;99.90
17489;DHT22;8861;52.644;4.734;2022-12-18T12:43:25;0.20;99.90
17489;DHT22;8861;52.644;4.734;2022-12-18T12:45:55;0.20;99.90
17489;DHT22;8861;52.644;4.734;2022-12-18T12:48:38;0.20;99.90
17489;DHT22;8861;52.644;4.734;2022-12-18T12:51:12;0.20;99.90
17489;DHT22;8861;52.644;4.734;2022-12-18T12:53:41;0.20;99.90
17489;DHT22;8861;52.644;4.734;2022-12-18T12:56:11;0.30;99.90
17489;DHT22;8861;52.644;4.734;2022-12-18T12:58:45;0.30;99.90
17489;DHT22;8861;52.644;4.734;2022-12-18T13:01:21;0.30;99.90
17489;DHT22;8861;52.644;4.734;2022-12-18T13:04:00;0.30;99.90
17489;DHT22;8861;52.644;4.734;2022-12-18T13:06:37;0.30;99.90
17489;DHT22;8861;52.644;4.734;2022-12-18T13:09:07;0.30;99.90
17489;DHT22;8861;52.644;4.734;2022-12-18T13:11:39;0.40;99.90
17489;DHT22;8861;52.644;4.734;2022-12-18T13:14:27;0.40;99.90
17489;DHT22;8861;52.644;4.734;2022-12-18T13:17:14;0.30;99.90
17489;DHT22;8861;52.644;4.734;2022-12-18T13:19:41;0.40;99.90
17489;DHT22;8861;52.644;4.734;2022-12-18T13:22:22;0.40;99.90
17489;DHT22;8861;52.644;4.734;2022-12-18T13:24:50;0.40;99.90
17489;DHT22;8861;52.644;4.734;2022-12-18T13:27:46;0.40;99.90
17489;DHT22;8861;52.644;4.734;2022-12-18T13:30:44;0.40;99.90
17489;DHT22;8861;52.644;4.734;2022-12-18T13:36:28;0.40;99.90
17489;DHT22;8861;52.644;4.734;2022-12-18T13:39:35;0.40;99.90
17489;DHT22;8861;52.644;4.734;2022-12-18T13:42:39;0.40;99.90
17489;DHT22;8861;52.644;4.734;2022-12-18T13:45:45;0.30;99.90
17489;DHT22;8861;52.644;4.734;2022-12-18T13:48:20;0.30;99.90
17489;DHT22;8861;52.644;4.734;2022-12-18T13:50:59;0.30;99.90
17489;DHT22;8861;52.644;4.734;2022-12-18T13:53:29;0.30;99.90
17489;DHT22;8861;52.644;4.734;2022-12-18T13:55:58;0.30;99.90
17489;DHT22;8861;52.644;4.734;2022-12-18T13:58:25;0.30;99.90
17489;DHT22;8861;52.644;4.734;2022-12-18T14:00:52;0.30;99.90
17489;DHT22;8861;52.644;4.734;2022-12-18T14:03:21;0.30;99.90
17489;DHT22;8861;52.644;4.734;2022-12-18T14:05:58;0.30;99.90
17489;DHT22;8861;52.644;4.734;2022-12-18T14:08:32;0.30;99.90
17489;DHT22;8861;52.644;4.734;2022-12-18T14:11:01;0.30;99.90
17489;DHT22;8861;52.644;4.734;2022-12-18T14:13:32;0.30;99.90
17489;DHT22;8861;52.644;4.734;2022-12-18T14:16:02;0.30;99.90
17489;DHT22;8861;52.644;4.734;2022-12-18T14:18:36;0.30;99.90
17489;DHT22;8861;52.644;4.734;2022-12-18T14:21:05;0.30;99.90
17489;DHT22;8861;52.644;4.734;2022-12-18T14:23:35;0.30;99.90
17489;DHT22;8861;52.644;4.734;2022-12-18T14:26:21;0.30;99.90
17489;DHT22;8861;52.644;4.734;2022-12-18T14:28:48;0.30;99.90
17489;DHT22;8861;52.644;4.734;2022-12-18T14:31:19;0.30;99.90
17489;DHT22;8861;52.644;4.734;2022-12-18T14:33:46;0.30;99.90
17489;DHT22;8861;52.644;4.734;2022-12-18T14:36:16;0.40;99.90
17489;DHT22;8861;52.644;4.734;2022-12-18T14:38:43;0.40;99.90
17489;DHT22;8861;52.644;4.734;2022-12-18T14:41:17;0.30;99.90
17489;DHT22;8861;52.644;4.734;2022-12-18T14:43:46;0.40;99.90
17489;DHT22;8861;52.644;4.734;2022-12-18T14:46:29;0.30;99.90
17489;DHT22;8861;52.644;4.734;2022-12-18T14:48:58;0.30;99.90
17489;DHT22;8861;52.644;4.734;2022-12-18T14:51:27;0.30;99.90
17489;DHT22;8861;52.644;4.734;2022-12-18T14:53:56;0.30;99.90
17489;DHT22;8861;52.644;4.734;2022-12-18T14:56:28;0.30;99.90
17489;DHT22;8861;52.644;4.734;2022-12-18T14:58:57;0.30;99.90
17489;DHT22;8861;52.644;4.734;2022-12-18T15:01:27;0.30;99.90
17489;DHT22;8861;52.644;4.734;2022-12-18T15:03:56;0.30;99.90
17489;DHT22;8861;52.644;4.734;2022-12-18T15:06:35;0.30;99.90
17489;DHT22;8861;52.644;4.734;2022-12-18T15:09:04;0.30;99.90
17489;DHT22;8861;52.644;4.734;2022-12-18T15:11:45;0.30;99.90
17489;DHT22;8861;52.644;4.734;2022-12-18T15:14:35;0.30;99.90
17489;DHT22;8861;52.644;4.734;2022-12-18T15:17:06;0.30;99.90
17489;DHT22;8861;52.644;4.734;2022-12-18T15:19:43;0.40;99.90
17489;DHT22;8861;52.644;4.734;2022-12-18T15:22:24;0.40;99.90
17489;DHT22;8861;52.644;4.734;2022-12-18T15:24:52;0.40;99.90
17489;DHT22;8861;52.644;4.734;2022-12-18T15:27:23;0.40;99.90
17489;DHT22;8861;52.644;4.734;2022-12-18T15:30:01;0.40;99.90
17489;DHT22;8861;52.644;4.734;2022-12-18T15:32:28;0.40;99.90
17489;DHT22;8861;52.644;4.734;2022-12-18T15:35:03;0.30;99.90
17489;DHT22;8861;52.644;4.734;2022-12-18T15:37:30;0.40;99.90
17489;DHT22;8861;52.644;4.734;2022-12-18T15:39:57;0.40;99.90
17489;DHT22;8861;52.644;4.734;2022-12-18T15:42:25;0.40;99.90
17489;DHT22;8861;52.644;4.734;2022-12-18T15:45:12;0.40;99.90
17489;DHT22;8861;52.644;4.734;2022-12-18T15:47:39;0.40;99.90
17489;DHT22;8861;52.644;4.734;2022-12-18T15:50:08;0.40;99.90
17489;DHT22;8861;52.644;4.734;2022-12-18T15:52:39;0.40;99.90
17489;DHT22;8861;52.644;4.734;2022-12-18T15:55:10;0.40;99.90
17489;DHT22;8861;52.644;4.734;2022-12-18T15:57:56;0.40;99.90
17489;DHT22;8861;52.644;4.734;2022-12-18T16:00:23;0.40;99.90
17489;DHT22;8861;52.644;4.734;2022-12-18T16:02:51;0.40;99.90
17489;DHT22;8861;52.644;4.734;2022-12-18T16:05:19;0.40;99.90
17489;DHT22;8861;52.644;4.734;2022-12-18T16:07:47;0.50;99.90
17489;DHT22;8861;52.644;4.734;2022-12-18T16:10:14;0.50;99.90
17489;DHT22;8861;52.644;4.734;2022-12-18T16:12:42;0.50;99.90
17489;DHT22;8861;52.644;4.734;2022-12-18T16:15:13;0.50;99.90
17489;DHT22;8861;52.644;4.734;2022-12-18T16:17:41;0.50;99.90
17489;DHT22;8861;52.644;4.734;2022-12-18T16:20:12;0.40;99.90
17489;DHT22;8861;52.644;4.734;2022-12-18T16:22:41;0.50;99.90
17489;DHT22;8861;52.644;4.734;2022-12-18T16:25:09;0.50;99.90
17489;DHT22;8861;52.644;4.734;2022-12-18T16:27:41;0.50;99.90
17489;DHT22;8861;52.644;4.734;2022-12-18T16:30:14;0.50;99.90
17489;DHT22;8861;52.644;4.734;2022-12-18T16:32:41;0.50;99.90
17489;DHT22;8861;52.644;4.734;2022-12-18T16:35:10;0.50;99.90
17489;DHT22;8861;52.644;4.734;2022-12-18T16:37:37;0.50;99.90
17489;DHT22;8861;52.644;4.734;2022-12-18T16:40:06;0.50;99.90
17489;DHT22;8861;52.644;4.734;2022-12-18T16:42:34;0.50;99.90
17489;DHT22;8861;52.644;4.734;2022-12-18T16:45:02;0.50;99.90
17489;DHT22;8861;52.644;4.734;2022-12-18T16:47:30;0.50;99.90
17489;DHT22;8861;52.644;4.734;2022-12-18T16:49:57;0.50;99.90
17489;DHT22;8861;52.644;4.734;2022-12-18T16:52:24;0.50;99.90
17489;DHT22;8861;52.644;4.734;2022-12-18T16:54:51;0.50;99.90
17489;DHT22;8861;52.644;4.734;2022-12-18T16:57:20;0.50;99.90
17489;DHT22;8861;52.644;4.734;2022-12-18T16:59:47;0.50;99.90
17489;DHT22;8861;52.644;4.734;2022-12-18T17:02:16;0.50;99.90
17489;DHT22;8861;52.644;4.734;2022-12-18T17:04:45;0.50;99.90
17489;DHT22;8861;52.644;4.734;2022-12-18T17:07:12;0.50;99.90
17489;DHT22;8861;52.644;4.734;2022-12-18T17:09:39;0.50;99.90
17489;DHT22;8861;52.644;4.734;2022-12-18T17:12:07;0.60;99.90
17489;DHT22;8861;52.644;4.734;2022-12-18T17:14:35;0.60;99.90
17489;DHT22;8861;52.644;4.734;2022-12-18T17:17:02;0.60;99.90
17489;DHT22;8861;52.644;4.734;2022-12-18T17:19:29;0.60;99.90
17489;DHT22;8861;52.644;4.734;2022-12-18T17:21:57;0.60;99.90
17489;DHT22;8861;52.644;4.734;2022-12-18T17:24:24;0.60;99.90
17489;DHT22;8861;52.644;4.734;2022-12-18T17:26:51;0.70;99.90
17489;DHT22;8861;52.644;4.734;2022-12-18T17:29:19;0.70;99.90
17489;DHT22;8861;52.644;4.734;2022-12-18T17:31:46;0.70;99.90
17489;DHT22;8861;52.644;4.734;2022-12-18T17:34:14;0.80;99.90
17489;DHT22;8861;52.644;4.734;2022-12-18T17:36:41;0.80;99.90
17489;DHT22;8861;52.644;4.734;2022-12-18T17:39:16;0.90;99.90
17489;DHT22;8861;52.644;4.734;2022-12-18T17:41:45;0.90;99.90
17489;DHT22;8861;52.644;4.734;2022-12-18T17:44:12;0.90;99.90
17489;DHT22;8861;52.644;4.734;2022-12-18T17:46:39;0.90;99.90
17489;DHT22;8861;52.644;4.734;2022-12-18T17:49:06;1.00;99.90
17489;DHT22;8861;52.644;4.734;2022-12-18T17:51:33;1.00;99.90
17489;DHT22;8861;52.644;4.734;2022-12-18T17:54:00;1.00;99.90
17489;DHT22;8861;52.644;4.734;2022-12-18T17:56:29;1.00;99.90
17489;DHT22;8861;52.644;4.734;2022-12-18T17:58:56;1.00;99.90
17489;DHT22;8861;52.644;4.734;2022-12-18T18:01:24;1.00;99.90
17489;DHT22;8861;52.644;4.734;2022-12-18T18:03:52;1.00;99.90
17489;DHT22;8861;52.644;4.734;2022-12-18T18:06:20;1.10;99.90
17489;DHT22;8861;52.644;4.734;2022-12-18T18:08:48;1.10;99.90
17489;DHT22;8861;52.644;4.734;2022-12-18T18:11:17;1.10;99.90
17489;DHT22;8861;52.644;4.734;2022-12-18T18:14:14;1.20;99.90
17489;DHT22;8861;52.644;4.734;2022-12-18T18:17:03;1.20;99.90
17489;DHT22;8861;52.644;4.734;2022-12-18T18:19:31;1.20;99.90
17489;DHT22;8861;52.644;4.734;2022-12-18T18:21:58;1.30;99.90
17489;DHT22;8861;52.644;4.734;2022-12-18T18:24:26;1.20;99.90
17489;DHT22;8861;52.644;4.734;2022-12-18T18:26:53;1.30;99.90
17489;DHT22;8861;52.644;4.734;2022-12-18T18:29:23;1.30;99.90
17489;DHT22;8861;52.644;4.734;2022-12-18T18:31:50;1.40;99.90
17489;DHT22;8861;52.644;4.734;2022-12-18T18:34:20;1.40;99.90
17489;DHT22;8861;52.644;4.734;2022-12-18T18:36:47;1.40;99.90
17489;DHT22;8861;52.644;4.734;2022-12-18T18:39:17;1.50;99.90
17489;DHT22;8861;52.644;4.734;2022-12-18T18:41:45;1.50;99.90
17489;DHT22;8861;52.644;4.734;2022-12-18T18:44:12;1.50;99.90